createdAt,value
2022-11-09T00:00:52.155Z,1.77
2022-11-09T00:03:20.016Z,1.77
2022-11-09T00:05:57.824Z,1.70
2022-11-09T00:08:24.932Z,1.83
2022-11-09T00:10:52.272Z,2.10
2022-11-09T00:13:19.531Z,2.00
2022-11-09T00:15:47.153Z,1.93
2022-11-09T00:18:14.544Z,1.80
2022-11-09T00:20:47.537Z,2.00
2022-11-09T00:23:17.203Z,1.80
2022-11-09T00:25:44.650Z,1.93
2022-11-09T00:28:12.061Z,1.97
2022-11-09T00:30:39.446Z,1.60
2022-11-09T00:33:07.357Z,1.50
2022-11-09T00:35:34.637Z,1.67
2022-11-09T00:38:06.945Z,1.80
2022-11-09T00:40:34.031Z,1.67
2022-11-09T00:43:01.032Z,2.07
2022-11-09T00:45:28.020Z,1.73
2022-11-09T00:47:55.015Z,1.93
2022-11-09T00:50:22.233Z,1.83
2022-11-09T00:52:49.314Z,1.93
2022-11-09T00:55:16.738Z,1.90
2022-11-09T00:57:43.716Z,1.67
2022-11-09T01:00:11.769Z,1.87
2022-11-09T01:02:38.751Z,1.80
2022-11-09T01:05:06.251Z,1.77
2022-11-09T01:07:33.281Z,1.70
2022-11-09T01:10:00.447Z,1.53
2022-11-09T01:12:27.466Z,1.77
2022-11-09T01:14:54.620Z,1.83
2022-11-09T01:17:21.642Z,1.87
2022-11-09T01:19:49.287Z,1.67
2022-11-09T01:22:16.944Z,1.50
2022-11-09T01:24:43.890Z,1.67
2022-11-09T01:27:10.995Z,1.70
2022-11-09T01:29:38.084Z,2.23
2022-11-09T01:32:05.245Z,1.90
2022-11-09T01:34:35.346Z,1.63
2022-11-09T01:37:02.716Z,1.80
2022-11-09T01:39:30.667Z,1.80
2022-11-09T01:41:57.715Z,2.00
2022-11-09T01:44:27.882Z,1.70
2022-11-09T01:47:02.251Z,1.80
2022-11-09T01:49:37.978Z,1.90
2022-11-09T01:52:11.616Z,1.43
2022-11-09T01:54:57.820Z,1.30
2022-11-09T01:57:47.265Z,1.40
2022-11-09T02:00:16.372Z,1.20
2022-11-09T02:02:57.096Z,1.30
2022-11-09T02:05:29.371Z,1.10
2022-11-09T02:07:58.192Z,1.10
2022-11-09T02:10:38.150Z,1.10
2022-11-09T02:13:08.827Z,1.10
2022-11-09T02:15:41.484Z,1.17
2022-11-09T02:18:13.003Z,1.07
2022-11-09T02:20:54.727Z,1.00
2022-11-09T02:23:24.743Z,1.07
2022-11-09T02:25:56.577Z,0.97
2022-11-09T02:28:25.655Z,1.10
2022-11-09T02:30:56.018Z,1.30
2022-11-09T02:33:24.153Z,1.00
2022-11-09T02:35:52.233Z,0.90
2022-11-09T02:38:19.681Z,1.00
2022-11-09T02:40:50.292Z,0.73
2022-11-09T02:43:19.146Z,0.70
2022-11-09T02:45:46.624Z,0.73
2022-11-09T02:48:14.441Z,0.60
2022-11-09T02:50:41.579Z,0.67
2022-11-09T02:53:08.610Z,0.80
2022-11-09T02:55:38.732Z,0.80
2022-11-09T02:58:07.111Z,0.60
2022-11-09T03:00:35.053Z,1.00
2022-11-09T03:03:03.184Z,0.73
2022-11-09T03:05:30.302Z,0.83
2022-11-09T03:07:57.682Z,0.93
2022-11-09T03:10:24.688Z,0.90
2022-11-09T03:12:52.226Z,0.90
2022-11-09T03:15:19.443Z,1.00
2022-11-09T03:17:46.738Z,1.00
2022-11-09T03:20:14.505Z,1.20
2022-11-09T03:22:42.658Z,0.73
2022-11-09T03:25:10.425Z,1.13
2022-11-09T03:27:37.623Z,1.00
2022-11-09T03:30:05.388Z,1.00
2022-11-09T03:32:32.502Z,1.10
2022-11-09T03:34:59.523Z,1.07
2022-11-09T03:37:27.208Z,1.10
2022-11-09T03:39:54.316Z,1.27
2022-11-09T03:42:21.461Z,1.20
2022-11-09T03:44:49.684Z,1.30
2022-11-09T03:47:16.786Z,1.20
2022-11-09T03:49:43.764Z,1.30
2022-11-09T03:52:10.793Z,1.30
2022-11-09T03:54:37.807Z,1.30
2022-11-09T03:57:05.360Z,1.40
2022-11-09T03:59:32.444Z,1.30
2022-11-09T04:02:00.106Z,1.23
2022-11-09T04:04:27.147Z,1.10
2022-11-09T04:06:54.292Z,1.20
2022-11-09T04:09:21.281Z,1.40
2022-11-09T04:11:48.481Z,1.20
2022-11-09T04:14:15.525Z,1.30
2022-11-09T04:16:42.633Z,1.17
2022-11-09T04:19:09.574Z,1.17
2022-11-09T04:21:36.665Z,1.17
2022-11-09T04:24:03.783Z,1.10
2022-11-09T04:26:30.947Z,1.30
2022-11-09T04:28:58.055Z,1.30
2022-11-09T04:31:27.991Z,1.27
2022-11-09T04:33:55.804Z,1.03
2022-11-09T04:36:23.159Z,1.30
2022-11-09T04:38:50.320Z,1.17
2022-11-09T04:41:17.440Z,0.93
2022-11-09T04:43:44.367Z,1.37
2022-11-09T04:46:12.020Z,1.27
2022-11-09T04:48:39.150Z,1.20
2022-11-09T04:51:10.638Z,1.17
2022-11-09T04:53:38.444Z,1.50
2022-11-09T04:56:06.698Z,1.20
2022-11-09T04:58:33.997Z,1.30
2022-11-09T05:01:27.594Z,1.40
2022-11-09T05:03:54.952Z,1.27
2022-11-09T05:06:35.891Z,1.50
2022-11-09T05:09:09.425Z,1.27
2022-11-09T05:11:37.058Z,1.33
2022-11-09T05:14:05.198Z,1.20
2022-11-09T05:16:32.767Z,1.87
2022-11-09T05:18:59.976Z,1.40
2022-11-09T05:21:27.751Z,1.57
2022-11-09T05:24:00.768Z,1.70
2022-11-09T05:26:37.290Z,1.50
2022-11-09T05:29:09.976Z,1.40
2022-11-09T05:31:38.170Z,1.47
2022-11-09T05:34:07.364Z,1.53
2022-11-09T05:36:34.628Z,1.70
2022-11-09T05:39:01.985Z,1.60
2022-11-09T05:41:29.175Z,1.57
2022-11-09T05:43:56.159Z,1.70
2022-11-09T05:46:23.716Z,1.40
2022-11-09T05:48:50.671Z,1.20
2022-11-09T05:51:17.884Z,1.60
2022-11-09T05:53:46.877Z,1.30
2022-11-09T05:56:15.327Z,1.40
2022-11-09T05:58:43.289Z,1.30
2022-11-09T06:01:13.904Z,1.00
2022-11-09T06:03:44.306Z,1.37
2022-11-09T06:06:14.293Z,1.00
2022-11-09T06:08:44.781Z,1.03
2022-11-09T06:11:18.306Z,1.00
2022-11-09T06:13:50.264Z,0.80
2022-11-09T06:16:17.848Z,1.07
2022-11-09T06:18:45.239Z,0.83
2022-11-09T06:21:12.794Z,0.60
2022-11-09T06:23:40.013Z,0.87
2022-11-09T06:26:10.172Z,0.83
2022-11-09T06:28:38.546Z,0.80
2022-11-09T06:31:08.077Z,0.77
2022-11-09T06:33:36.353Z,1.00
2022-11-09T06:36:03.987Z,1.00
2022-11-09T06:38:31.685Z,0.90
2022-11-09T06:41:00.453Z,0.83
2022-11-09T06:43:28.173Z,0.77
2022-11-09T06:45:56.134Z,0.77
2022-11-09T06:48:23.816Z,0.70
2022-11-09T06:50:50.954Z,0.87
2022-11-09T06:53:18.841Z,0.73
2022-11-09T06:55:50.623Z,0.77
2022-11-09T06:58:19.893Z,0.70
2022-11-09T07:00:47.175Z,0.70
2022-11-09T07:03:20.179Z,0.80
2022-11-09T07:05:48.336Z,1.07
2022-11-09T07:08:16.923Z,0.80
2022-11-09T07:10:45.009Z,0.73
2022-11-09T07:13:12.903Z,0.90
2022-11-09T07:15:40.276Z,0.70
2022-11-09T07:18:10.620Z,1.00
2022-11-09T07:20:37.915Z,0.90
2022-11-09T07:23:05.102Z,0.77
2022-11-09T07:25:33.121Z,0.63
2022-11-09T07:28:05.392Z,0.80
2022-11-09T07:30:32.739Z,0.80
2022-11-09T07:33:15.411Z,0.90
2022-11-09T07:35:42.814Z,0.90
2022-11-09T07:38:10.314Z,0.67
2022-11-09T07:40:37.636Z,0.80
2022-11-09T07:43:06.314Z,0.90
2022-11-09T07:45:35.973Z,0.60
2022-11-09T07:48:07.245Z,0.60
2022-11-09T07:50:35.561Z,0.70
2022-11-09T07:53:03.700Z,0.80
2022-11-09T07:55:30.816Z,0.60
2022-11-09T07:58:03.784Z,0.60
2022-11-09T08:00:32.239Z,0.70
2022-11-09T08:02:59.697Z,0.80
2022-11-09T08:05:27.277Z,0.70
2022-11-09T08:07:59.249Z,0.70
2022-11-09T08:10:27.848Z,0.70
2022-11-09T08:12:55.907Z,0.80
2022-11-09T08:15:23.575Z,0.50
2022-11-09T08:17:51.898Z,0.50
2022-11-09T08:20:20.368Z,0.63
2022-11-09T08:22:47.994Z,0.80
2022-11-09T08:25:16.178Z,0.70
2022-11-09T08:27:43.873Z,0.70
2022-11-09T08:30:14.637Z,0.70
2022-11-09T08:32:43.225Z,0.70
2022-11-09T08:35:12.803Z,0.80
2022-11-09T08:37:40.142Z,0.70
2022-11-09T08:40:08.019Z,0.70
2022-11-09T08:42:35.360Z,0.87
2022-11-09T08:45:05.574Z,0.60
2022-11-09T08:47:33.321Z,0.80
2022-11-09T08:50:01.591Z,0.70
2022-11-09T08:52:28.956Z,0.90
2022-11-09T08:54:56.430Z,0.80
2022-11-09T08:57:23.851Z,0.80
2022-11-09T08:59:51.257Z,0.80
2022-11-09T09:02:19.034Z,0.70
2022-11-09T09:04:46.329Z,0.70
2022-11-09T09:07:14.410Z,0.77
2022-11-09T09:09:41.807Z,0.60
2022-11-09T09:12:10.084Z,0.60
2022-11-09T09:14:37.504Z,0.60
2022-11-09T09:17:05.299Z,0.80
2022-11-09T09:19:32.544Z,1.03
2022-11-09T09:21:59.891Z,0.70
2022-11-09T09:24:27.348Z,0.63
2022-11-09T09:26:54.581Z,0.83
2022-11-09T09:29:21.922Z,0.90
2022-11-09T09:31:49.688Z,1.00
2022-11-09T09:34:17.262Z,0.90
2022-11-09T09:36:47.856Z,0.80
2022-11-09T09:39:16.328Z,0.77
2022-11-09T09:41:56.259Z,0.80
2022-11-09T09:44:47.767Z,1.00
2022-11-09T09:47:34.061Z,1.00
2022-11-09T09:50:23.230Z,1.17
2022-11-09T09:53:23.926Z,0.73
2022-11-09T09:56:00.300Z,0.90
2022-11-09T09:58:30.011Z,1.13
2022-11-09T10:01:07.573Z,0.70
2022-11-09T10:03:34.686Z,1.13
2022-11-09T10:06:23.254Z,0.80
2022-11-09T10:08:58.322Z,1.20
2022-11-09T10:11:54.491Z,1.03
2022-11-09T10:14:57.393Z,1.10
2022-11-09T10:17:34.000Z,0.87
2022-11-09T10:20:15.843Z,1.33
2022-11-09T10:22:46.198Z,0.87
2022-11-09T10:26:02.908Z,1.00
2022-11-09T10:28:17.608Z,1.10
2022-11-09T10:30:45.234Z,1.00
2022-11-09T10:33:19.822Z,1.20
2022-11-09T10:36:08.008Z,1.00
2022-11-09T10:38:47.686Z,1.10
2022-11-09T10:41:40.871Z,0.90
2022-11-09T10:44:26.669Z,1.03
2022-11-09T10:47:16.854Z,0.87
2022-11-09T10:50:32.851Z,0.97
2022-11-09T10:53:24.301Z,0.93
2022-11-09T10:56:21.357Z,1.10
2022-11-09T10:59:38.162Z,0.90
2022-11-09T11:02:26.866Z,0.80
2022-11-09T11:05:18.516Z,0.80
2022-11-09T11:08:21.289Z,0.90
2022-11-09T11:11:36.985Z,0.80
2022-11-09T11:14:43.321Z,0.90
2022-11-09T11:17:39.623Z,0.70
2022-11-09T11:20:34.833Z,0.87
2022-11-09T11:23:22.438Z,0.80
2022-11-09T11:26:23.590Z,0.90
2022-11-09T11:29:36.574Z,0.83
2022-11-09T11:32:23.870Z,0.67
2022-11-09T11:35:23.348Z,1.03
2022-11-09T11:38:42.517Z,1.00
2022-11-09T11:41:59.254Z,0.70
2022-11-09T11:45:26.094Z,0.60
2022-11-09T11:48:24.384Z,0.93
2022-11-09T11:51:18.582Z,0.70
2022-11-09T11:54:45.604Z,1.00
2022-11-09T11:58:08.744Z,1.00
2022-11-09T12:01:09.402Z,0.97
2022-11-09T12:04:14.034Z,1.00
2022-11-09T12:07:14.230Z,0.90
2022-11-09T12:10:38.133Z,0.93
2022-11-09T12:14:25.112Z,0.70
2022-11-09T12:17:41.927Z,0.80
2022-11-09T12:21:07.433Z,1.00
2022-11-09T12:23:53.063Z,1.10
2022-11-09T12:26:44.747Z,0.90
2022-11-09T12:29:39.495Z,0.80
2022-11-09T12:32:30.795Z,0.87
2022-11-09T12:35:26.727Z,1.10
2022-11-09T12:38:23.800Z,1.00
2022-11-09T12:41:15.810Z,0.80
2022-11-09T12:44:15.925Z,0.93
2022-11-09T12:47:16.699Z,1.10
2022-11-09T12:50:02.726Z,1.20
2022-11-09T12:52:52.398Z,0.90
2022-11-09T12:55:51.639Z,1.17
2022-11-09T12:58:39.105Z,1.10
2022-11-09T13:01:46.766Z,1.47
2022-11-09T13:04:32.853Z,1.37
2022-11-09T13:07:30.304Z,1.20
2022-11-09T13:10:39.496Z,1.13
2022-11-09T13:13:25.858Z,1.00
2022-11-09T13:16:33.386Z,1.10
2022-11-09T13:19:34.288Z,1.20
2022-11-09T13:22:25.547Z,1.13
2022-11-09T13:25:48.460Z,1.03
2022-11-09T13:28:34.119Z,1.00
2022-11-09T13:31:58.187Z,1.30
2022-11-09T13:35:04.355Z,1.10
2022-11-09T13:37:57.705Z,0.87
2022-11-09T13:40:45.231Z,1.23
2022-11-09T13:43:36.329Z,0.90
2022-11-09T13:46:32.051Z,1.17
2022-11-09T13:49:48.029Z,1.27
2022-11-09T13:52:49.714Z,1.20
2022-11-09T13:55:43.055Z,1.07
2022-11-09T13:58:38.252Z,1.30
2022-11-09T14:01:26.606Z,1.30
2022-11-09T14:04:24.123Z,1.00
2022-11-09T14:07:16.679Z,1.20
2022-11-09T14:10:19.088Z,0.93
2022-11-09T14:13:07.593Z,1.10
2022-11-09T14:16:14.245Z,1.00
2022-11-09T14:19:24.638Z,0.90
2022-11-09T14:22:19.670Z,1.20
2022-11-09T14:25:26.092Z,1.33
2022-11-09T14:28:25.031Z,1.13
2022-11-09T14:31:45.444Z,1.10
2022-11-09T14:34:31.057Z,1.40
2022-11-09T14:37:17.541Z,1.10
2022-11-09T14:40:03.140Z,1.20
2022-11-09T14:42:57.525Z,1.30
2022-11-09T14:45:55.569Z,1.10
2022-11-09T14:48:51.488Z,1.20
2022-11-09T14:51:39.996Z,1.40
2022-11-09T14:54:27.717Z,1.27
2022-11-09T14:57:15.970Z,1.20
2022-11-09T15:00:01.866Z,1.20
2022-11-09T15:02:47.984Z,1.30
2022-11-09T15:05:39.526Z,1.37
2022-11-09T15:08:25.235Z,1.47
2022-11-09T15:11:10.778Z,1.10
2022-11-09T15:13:56.745Z,1.20
2022-11-09T15:16:44.109Z,1.10
2022-11-09T15:19:33.734Z,1.10
2022-11-09T15:23:05.484Z,1.10
2022-11-09T15:25:51.789Z,1.27
2022-11-09T15:28:46.189Z,1.27
2022-11-09T15:31:31.828Z,1.10
2022-11-09T15:34:32.494Z,0.97
2022-11-09T15:37:38.110Z,1.10
2022-11-09T15:40:26.143Z,0.80
2022-11-09T15:43:11.632Z,0.73
2022-11-09T15:46:00.537Z,0.83
2022-11-09T15:48:46.588Z,0.87
2022-11-09T15:51:32.500Z,1.00
2022-11-09T15:54:18.842Z,0.90
2022-11-09T15:57:04.655Z,0.77
2022-11-09T15:59:52.222Z,0.73
2022-11-09T16:02:38.197Z,0.80
2022-11-09T16:05:27.886Z,0.77
2022-11-09T16:08:13.617Z,0.70
2022-11-09T16:11:04.917Z,0.87
2022-11-09T16:13:50.554Z,0.90
2022-11-09T16:16:36.936Z,0.80
2022-11-09T16:19:22.782Z,1.00
2022-11-09T16:22:08.817Z,1.07
2022-11-09T16:24:54.380Z,1.10
2022-11-09T16:27:50.156Z,0.93
2022-11-09T16:30:37.009Z,0.80
2022-11-09T16:33:22.795Z,0.93
2022-11-09T16:36:18.194Z,0.97
2022-11-09T16:39:06.814Z,0.87
2022-11-09T16:41:53.447Z,0.93
2022-11-09T16:44:41.758Z,0.80
2022-11-09T16:47:28.141Z,1.00
2022-11-09T16:50:14.133Z,0.97
2022-11-09T16:53:00.075Z,0.90
2022-11-09T16:55:48.921Z,0.90
2022-11-09T16:58:34.616Z,0.90
2022-11-09T17:01:23.744Z,1.17
2022-11-09T17:04:09.695Z,1.10
2022-11-09T17:06:55.226Z,1.17
2022-11-09T17:09:41.163Z,1.30
2022-11-09T17:12:27.180Z,0.90
2022-11-09T17:15:13.062Z,1.00
2022-11-09T17:17:59.177Z,1.10
2022-11-09T17:20:50.493Z,1.13
2022-11-09T17:23:36.255Z,1.20
2022-11-09T17:26:23.302Z,1.07
2022-11-09T17:29:09.334Z,1.20
2022-11-09T17:31:55.493Z,1.00
2022-11-09T17:34:41.296Z,1.10
2022-11-09T17:37:27.134Z,1.00
2022-11-09T17:40:13.034Z,1.30
2022-11-09T17:42:59.818Z,1.10
2022-11-09T17:45:45.405Z,1.10
2022-11-09T17:48:32.944Z,1.10
2022-11-09T17:51:20.410Z,1.00
2022-11-09T17:54:06.063Z,1.20
2022-11-09T17:56:51.931Z,1.00
2022-11-09T17:59:37.912Z,1.13
2022-11-09T18:02:28.911Z,1.47
2022-11-09T18:05:16.517Z,1.43
2022-11-09T18:08:02.184Z,1.57
2022-11-09T18:10:50.166Z,1.50
2022-11-09T18:13:36.057Z,1.77
2022-11-09T18:16:21.740Z,1.63
2022-11-09T18:19:07.318Z,1.80
2022-11-09T18:21:53.363Z,1.87
2022-11-09T18:24:39.163Z,1.30
2022-11-09T18:27:30.098Z,1.37
2022-11-09T18:30:16.730Z,1.50
2022-11-09T18:33:02.610Z,1.80
2022-11-09T18:35:59.487Z,1.77
2022-11-09T18:38:45.636Z,1.53
2022-11-09T18:41:31.351Z,1.53
2022-11-09T18:44:17.406Z,1.70
2022-11-09T18:47:05.611Z,1.50
2022-11-09T18:49:52.501Z,1.60
2022-11-09T18:52:37.823Z,1.80
2022-11-09T18:55:23.826Z,1.60
2022-11-09T18:58:10.065Z,1.57
2022-11-09T19:01:07.996Z,1.60
2022-11-09T19:03:59.778Z,1.70
2022-11-09T19:06:46.306Z,1.70
2022-11-09T19:09:35.681Z,2.00
2022-11-09T19:12:21.799Z,1.90
2022-11-09T19:15:08.137Z,1.30
2022-11-09T19:17:54.628Z,1.33
2022-11-09T19:20:40.200Z,1.47
2022-11-09T19:23:32.799Z,1.53
2022-11-09T19:26:21.110Z,1.70
2022-11-09T19:29:07.838Z,1.30
2022-11-09T19:31:55.155Z,1.60
2022-11-09T19:34:42.983Z,1.50
2022-11-09T19:37:28.871Z,1.47
2022-11-09T19:40:15.067Z,1.40
2022-11-09T19:43:03.456Z,1.40
2022-11-09T19:45:49.350Z,1.13
2022-11-09T19:48:35.764Z,1.53
2022-11-09T19:51:21.393Z,1.63
2022-11-09T19:54:07.641Z,1.47
2022-11-09T19:56:52.974Z,1.50
2022-11-09T19:59:38.596Z,1.50
2022-11-09T20:02:24.809Z,1.53
2022-11-09T20:05:10.388Z,1.70
2022-11-09T20:07:56.236Z,1.50
2022-11-09T20:10:41.875Z,1.83
2022-11-09T20:13:27.481Z,1.67
2022-11-09T20:16:13.437Z,1.60
2022-11-09T20:19:02.355Z,2.00
2022-11-09T20:21:49.182Z,1.60
2022-11-09T20:24:35.212Z,1.70
2022-11-09T20:27:20.933Z,1.63
2022-11-09T20:30:07.155Z,1.73
2022-11-09T20:32:52.922Z,1.53
2022-11-09T20:35:42.913Z,2.00
2022-11-09T20:38:31.912Z,1.57
2022-11-09T20:41:21.699Z,1.70
2022-11-09T20:44:11.154Z,1.87
2022-11-09T20:46:57.244Z,1.80
2022-11-09T20:49:43.514Z,1.60
2022-11-09T20:52:29.204Z,1.80
2022-11-09T20:55:15.246Z,1.40
2022-11-09T20:58:00.975Z,1.80
2022-11-09T21:00:46.673Z,2.03
2022-11-09T21:03:33.523Z,1.50
2022-11-09T21:06:20.852Z,1.53
2022-11-09T21:09:06.702Z,1.50
2022-11-09T21:12:11.193Z,1.80
2022-11-09T21:14:56.807Z,1.73
2022-11-09T21:17:42.645Z,1.60
2022-11-09T21:20:28.056Z,1.80
2022-11-09T21:23:13.771Z,1.80
2022-11-09T21:26:18.866Z,1.80
2022-11-09T21:29:28.453Z,1.70
2022-11-09T21:32:14.253Z,1.60
2022-11-09T21:34:59.785Z,2.20
2022-11-09T21:37:45.884Z,1.67
2022-11-09T21:40:31.276Z,1.93
2022-11-09T21:43:18.092Z,1.97
2022-11-09T21:46:03.893Z,1.47
2022-11-09T21:48:50.563Z,1.70
2022-11-09T21:51:37.884Z,1.90
2022-11-09T21:54:24.323Z,1.63
2022-11-09T21:57:09.877Z,2.13
2022-11-09T21:59:55.881Z,2.30
2022-11-09T22:02:42.481Z,1.80
2022-11-09T22:05:28.135Z,1.83
2022-11-09T22:08:14.455Z,2.40
2022-11-09T22:11:17.689Z,2.00
2022-11-09T22:14:22.067Z,1.90
2022-11-09T22:17:09.402Z,2.03
2022-11-09T22:20:14.004Z,2.27
2022-11-09T22:22:59.440Z,2.03
2022-11-09T22:25:47.907Z,2.10
2022-11-09T22:28:34.016Z,1.80
2022-11-09T22:31:20.199Z,2.10
2022-11-09T22:34:05.742Z,1.97
2022-11-09T22:36:51.565Z,1.70
2022-11-09T22:39:37.347Z,1.77
2022-11-09T22:42:23.092Z,1.93
2022-11-09T22:45:08.962Z,2.13
2022-11-09T22:47:54.919Z,1.80
2022-11-09T22:50:40.484Z,1.80
2022-11-09T22:53:26.428Z,2.23
2022-11-09T22:56:12.389Z,1.90
2022-11-09T22:58:58.159Z,1.57
2022-11-09T23:01:44.020Z,1.90
2022-11-09T23:04:29.764Z,1.70
2022-11-09T23:07:15.226Z,1.70
2022-11-09T23:10:01.674Z,1.80
2022-11-09T23:12:47.349Z,1.57
2022-11-09T23:15:33.185Z,2.00
2022-11-09T23:18:39.957Z,1.70
2022-11-09T23:21:37.425Z,2.10
2022-11-09T23:24:41.526Z,2.30
2022-11-09T23:27:27.451Z,2.20
2022-11-09T23:30:13.428Z,2.20
2022-11-09T23:33:02.850Z,2.63
2022-11-09T23:35:48.382Z,2.67
2022-11-09T23:38:36.482Z,2.30
2022-11-09T23:41:22.395Z,2.37
2022-11-09T23:44:09.374Z,2.40
2022-11-09T23:46:55.271Z,2.27
2022-11-09T23:49:41.882Z,2.23
2022-11-09T23:52:27.831Z,2.10
2022-11-09T23:55:14.066Z,2.00
2022-11-09T23:58:03.968Z,2.27
